Time;durP1;ratioP1;P1;durP2;ratioP2;P2;SDS_P1;SDS_P2;PMS_P1;PMS_P2;Temp;Humidity;BMP_temperature;BMP_pressure;BME280_temperature;BME280_humidity;BME280_pressure;Samples;Min_cycle;Max_cycle;Signal;HPM_P1;HPM_P2
2021/10/19 00:00:56;;;;;;;20.10;14.00;;;;;;;6.78;75.40;98417.31;115960;1183;61455;-65
2021/10/19 00:03:27;;;;;;;22.20;16.20;;;;;;;6.77;74.75;98415.45;116008;1184;60359;-64
2021/10/19 00:05:57;;;;;;;27.20;19.90;;;;;;;6.76;75.30;98415.48;115950;1183;72375;-66
2021/10/19 00:08:27;;;;;;;;;;;;;;;6.73;77.57;98411.45;116090;1183;67893;-65
2021/10/19 00:10:57;;;;;;;22.80;16.40;;;;;;;6.71;75.52;98415.17;115958;1183;69287;-64
2021/10/19 00:13:27;;;;;;;25.00;17.80;;;;;;;6.70;75.22;98414.70;115968;1184;60367;-66
2021/10/19 00:15:58;;;;;;;25.90;17.80;;;;;;;6.69;76.58;98415.77;116019;1182;60290;-64
2021/10/19 00:18:28;;;;;;;39.90;28.80;;;;;;;6.69;76.51;98414.40;115919;1183;72232;-64
2021/10/19 00:20:58;;;;;;;;;;;;;;;6.63;79.27;98414.95;116335;1184;68482;-65
2021/10/19 00:23:28;;;;;;;26.30;19.20;;;;;;;6.63;77.20;98412.89;116026;1182;69945;-63
2021/10/19 00:25:58;;;;;;;20.20;14.20;;;;;;;6.62;77.85;98409.46;115970;1184;60423;-63
2021/10/19 00:28:28;;;;;;;24.10;16.60;;;;;;;6.61;77.35;98410.20;115955;1181;60360;-63
2021/10/19 00:30:58;;;;;;;16.80;10.70;;;;;;;6.59;78.18;98416.17;116063;1184;71995;-64
2021/10/19 00:33:28;;;;;;;25.80;19.20;;;;;;;6.58;77.53;98409.13;115903;1184;67573;-63
2021/10/19 00:35:58;;;;;;;19.70;13.50;;;;;;;6.55;78.86;98410.44;116044;1184;69298;-65
2021/10/19 00:38:28;;;;;;;18.20;14.00;;;;;;;6.54;77.29;98412.56;116061;1182;60371;-63
2021/10/19 00:40:58;;;;;;;15.90;11.90;;;;;;;6.55;76.59;98415.79;115980;1183;60335;-63
2021/10/19 00:43:28;;;;;;;18.60;12.00;;;;;;;6.57;76.35;98415.05;115992;1184;72232;-67
2021/10/19 00:45:58;;;;;;;16.80;12.80;;;;;;;6.59;76.24;98417.20;116024;1182;68496;-65
2021/10/19 00:48:31;;;;;;;20.00;12.80;;;;;;;6.61;76.21;98422.14;115954;1184;69300;-63
2021/10/19 00:51:01;;;;;;;16.10;11.80;;;;;;;6.63;76.11;98423.28;115997;1182;60351;-66
2021/10/19 00:53:31;;;;;;;27.70;20.50;;;;;;;6.64;76.86;98423.39;116157;1176;60363;-63
2021/10/19 00:56:01;;;;;;;;;;;;;;;6.65;76.41;98419.56;116045;1182;70206;-64
2021/10/19 00:58:32;;;;;;;22.80;15.70;;;;;;;6.66;76.55;98422.30;116207;1182;67607;-64
2021/10/19 01:01:04;;;;;;;15.10;10.60;;;;;;;6.66;76.03;98420.77;116013;1184;68470;-65
2021/10/19 01:03:35;;;;;;;19.00;13.30;;;;;;;6.66;75.25;98424.57;116056;1182;60334;-66
2021/10/19 01:06:08;;;;;;;21.00;15.10;;;;;;;6.65;76.06;98420.77;116115;1182;60355;-64
2021/10/19 01:08:38;;;;;;;19.10;14.40;;;;;;;6.65;76.06;98416.63;116089;1183;71595;-64
2021/10/19 01:11:09;;;;;;;23.50;16.90;;;;;;;6.66;76.64;98416.96;116065;1182;68247;-63
2021/10/19 01:13:40;;;;;;;27.30;19.20;;;;;;;6.66;76.85;98417.48;116110;1182;68484;-64
2021/10/19 01:16:12;;;;;;;22.20;15.90;;;;;;;6.65;76.79;98416.98;116035;1182;60319;-65
2021/10/19 01:18:43;;;;;;;16.20;12.20;;;;;;;6.64;76.13;98412.84;116142;1182;60346;-64
2021/10/19 01:21:13;;;;;;;18.90;14.30;;;;;;;6.64;75.97;98410.77;116430;1182;73588;-63
2021/10/19 01:23:43;;;;;;;15.70;11.60;;;;;;;6.63;76.01;98410.95;116152;1183;68215;-66
2021/10/19 01:26:15;;;;;;;;;;;;;;;6.64;75.75;98413.52;115957;1182;69230;-63
2021/10/19 01:28:45;;;;;;;20.00;14.20;;;;;;;6.63;77.29;98413.92;116011;1184;60334;-62
2021/10/19 01:31:15;;;;;;;15.30;11.80;;;;;;;6.62;76.39;98416.38;116077;1183;60364;-62
2021/10/19 01:33:45;;;;;;;18.30;12.60;;;;;;;6.62;75.82;98416.72;115949;1183;71408;-62
2021/10/19 01:36:16;;;;;;;15.20;11.30;;;;;;;6.62;75.72;98416.56;116021;1184;68207;-65
2021/10/19 01:38:46;;;;;;;;;;;;;;;6.62;75.67;98419.35;116044;1182;69240;-63
2021/10/19 01:41:18;;;;;;;20.10;13.70;;;;;;;6.61;75.84;98421.30;115975;1184;60421;-63
2021/10/19 01:43:49;;;;;;;17.00;13.80;;;;;;;6.61;75.47;98422.86;116062;1183;60315;-62
2021/10/19 01:46:21;;;;;;;18.80;13.40;;;;;;;6.60;76.14;98429.80;116037;1183;72195;-63
2021/10/19 01:48:52;;;;;;;17.50;12.80;;;;;;;6.60;75.71;98429.13;116027;1182;68573;-63
2021/10/19 01:51:24;;;;;;;14.50;10.10;;;;;;;6.59;75.51;98429.66;115996;1183;69669;-63
2021/10/19 01:53:54;;;;;;;33.50;22.70;;;;;;;6.59;76.85;98430.17;116052;1182;60398;-62
2021/10/19 01:56:25;;;;;;;33.30;23.00;;;;;;;6.55;79.40;98436.23;116171;1183;60321;-62
2021/10/19 01:58:55;;;;;;;24.00;18.40;;;;;;;6.50;79.75;98431.10;116070;1184;72229;-62
2021/10/19 02:01:25;;;;;;;18.00;13.00;;;;;;;6.49;78.22;98435.08;116069;1182;68527;-65
2021/10/19 02:03:56;;;;;;;18.00;11.90;;;;;;;6.48;76.88;98434.63;115975;1183;69230;-62
2021/10/19 02:06:27;;;;;;;16.90;12.10;;;;;;;6.48;77.84;98433.59;116053;1183;60452;-63
2021/10/19 02:09:00;;;;;;;24.90;19.70;;;;;;;6.46;77.10;98435.90;116039;1182;60357;-65
2021/10/19 02:11:31;;;;;;;21.70;14.80;;;;;;;6.44;78.48;98437.92;116031;1174;71984;-62
2021/10/19 02:14:01;;;;;;;28.20;20.10;;;;;;;6.41;80.14;98439.59;115999;1182;68365;-66
2021/10/19 02:16:31;;;;;;;19.50;13.60;;;;;;;6.38;78.70;98437.80;115977;1183;69067;-64
2021/10/19 02:19:01;;;;;;;24.70;18.00;;;;;;;6.37;77.69;98437.12;115952;1183;60292;-63
2021/10/19 02:21:31;;;;;;;23.00;16.90;;;;;;;6.37;77.77;98439.73;116122;1183;60359;-66
2021/10/19 02:24:01;;;;;;;18.70;11.30;;;;;;;6.37;78.35;98440.94;116057;1183;71399;-66
2021/10/19 02:26:31;;;;;;;21.70;17.20;;;;;;;6.37;78.04;98440.25;116004;1183;67689;-66
2021/10/19 02:29:01;;;;;;;17.20;12.80;;;;;;;6.35;78.16;98440.85;115981;1184;68443;-66
2021/10/19 02:31:32;;;;;;;17.10;12.20;;;;;;;6.34;77.90;98441.07;116057;1184;60363;-64
2021/10/19 02:34:03;;;;;;;15.20;10.30;;;;;;;6.33;77.24;98445.61;116222;1183;60797;-64
2021/10/19 02:36:33;;;;;;;21.60;15.20;;;;;;;6.31;77.69;98449.34;116013;1183;70638;-66
2021/10/19 02:39:06;;;;;;;22.60;16.40;;;;;;;6.26;79.46;98454.21;116074;1184;68366;-64
2021/10/19 02:41:39;;;;;;;22.90;14.70;;;;;;;6.19;79.06;98458.28;116025;1182;69468;-65
2021/10/19 02:44:09;;;;;;;21.90;15.30;;;;;;;6.14;78.47;98458.48;116014;1183;60374;-66
2021/10/19 02:46:39;;;;;;;;;;;;;;;6.08;78.15;98459.71;116057;1183;60363;-65
2021/10/19 02:49:09;;;;;;;18.20;13.20;;;;;;;6.04;78.08;98465.77;116047;1184;71421;-65
2021/10/19 02:51:38;;;;;;;10.90;8.20;;;;;;;6.01;77.42;98465.20;116039;1183;67893;-64
2021/10/19 02:54:10;;;;;;;23.10;15.40;;;;;;;5.98;77.04;98466.00;116045;1183;68454;-63
2021/10/19 02:56:40;;;;;;;26.10;17.00;;;;;;;5.94;77.77;98468.73;116051;1184;60303;-63
2021/10/19 02:59:11;;;;;;;12.50;9.40;;;;;;;5.90;77.61;98471.13;115993;1183;60429;-64
2021/10/19 03:01:41;;;;;;;;;;;;;;;5.85;77.46;98473.37;116056;1183;72023;-64
2021/10/19 03:04:11;;;;;;;25.50;16.90;;;;;;;5.79;78.48;98473.75;115989;1182;67716;-66
2021/10/19 03:06:41;;;;;;;;;;;;;;;5.73;79.03;98481.41;115981;1184;69976;-65
2021/10/19 03:09:11;;;;;;;17.30;12.10;;;;;;;5.67;78.46;98478.70;116046;1184;60337;-63
2021/10/19 03:11:41;;;;;;;20.70;14.30;;;;;;;5.60;78.50;98480.50;116064;1183;60374;-64
2021/10/19 03:14:12;;;;;;;22.90;17.80;;;;;;;5.53;78.40;98480.58;116035;1183;72027;-64
2021/10/19 03:16:42;;;;;;;26.20;18.90;;;;;;;5.46;79.71;98481.86;115976;1182;68427;-64
2021/10/19 03:19:11;;;;;;;26.10;18.10;;;;;;;5.37;81.01;98481.14;116134;1184;69325;-64
2021/10/19 03:21:41;;;;;;;31.10;21.50;;;;;;;5.29;79.76;98482.29;116114;1184;60312;-66
2021/10/19 03:24:11;;;;;;;25.20;17.70;;;;;;;5.20;80.47;98479.65;115970;1183;60363;-64
2021/10/19 03:26:41;;;;;;;34.30;22.70;;;;;;;5.11;81.16;98480.48;116027;1182;71428;-63
2021/10/19 03:29:10;;;;;;;20.90;15.40;;;;;;;5.02;81.76;98483.71;116145;1183;68475;-65
2021/10/19 03:31:41;;;;;;;24.60;17.30;;;;;;;4.96;80.74;98487.89;115921;1184;69177;-64
2021/10/19 03:34:10;;;;;;;29.70;19.50;;;;;;;4.87;81.85;98493.02;115913;1184;60354;-65
2021/10/19 03:36:40;;;;;;;33.60;21.70;;;;;;;4.79;81.89;98493.10;116164;1183;60381;-65
2021/10/19 03:39:10;;;;;;;29.60;19.00;;;;;;;4.71;83.24;98494.75;116047;1183;72198;-64
2021/10/19 03:41:40;;;;;;;25.30;18.30;;;;;;;4.65;82.49;98498.05;116040;1183;68358;-66
2021/10/19 03:44:10;;;;;;;21.40;13.70;;;;;;;4.59;81.77;98501.67;116075;1183;69676;-65
2021/10/19 03:46:40;;;;;;;11.70;7.90;;;;;;;4.55;81.05;98506.30;116063;1184;60379;-64
2021/10/19 03:49:10;;;;;;;19.40;14.80;;;;;;;4.49;80.57;98508.88;116016;1183;60373;-65
2021/10/19 03:51:40;;;;;;;;;;;;;;;4.44;81.24;98510.80;116031;1184;73735;-63
2021/10/19 03:54:10;;;;;;;32.70;21.10;;;;;;;4.36;81.53;98510.16;115994;1184;68699;-63
2021/10/19 03:56:39;;;;;;;26.00;18.60;;;;;;;4.28;82.09;98512.46;116031;1182;68681;-65
2021/10/19 03:59:09;;;;;;;;;;;;;;;4.20;82.59;98512.70;116010;1184;60363;-62
2021/10/19 04:01:39;;;;;;;32.90;21.90;;;;;;;4.12;83.00;98510.01;116025;1184;60325;-62
2021/10/19 04:04:09;;;;;;;27.60;17.90;;;;;;;4.06;82.83;98514.85;115823;1183;70629;-62
2021/10/19 04:06:38;;;;;;;23.90;16.10;;;;;;;4.00;82.27;98518.99;115992;1183;67897;-65
2021/10/19 04:09:08;;;;;;;27.40;18.30;;;;;;;3.95;81.81;98524.99;116068;1183;68279;-62
2021/10/19 04:11:38;;;;;;;33.40;21.40;;;;;;;3.87;83.16;98525.06;115969;1182;60363;-63
2021/10/19 04:14:07;;;;;;;34.60;22.00;;;;;;;3.80;84.30;98525.08;116016;1184;60355;-64
2021/10/19 04:16:37;;;;;;;31.10;19.40;;;;;;;3.73;84.51;98531.48;115879;1183;72219;-64
2021/10/19 04:19:07;;;;;;;34.70;22.40;;;;;;;3.68;83.96;98529.36;116080;1183;67097;-62
2021/10/19 04:21:38;;;;;;;26.80;18.30;;;;;;;3.61;83.88;98529.75;116084;1182;68455;-64
2021/10/19 04:24:08;;;;;;;24.90;16.80;;;;;;;3.55;83.29;98540.05;116174;1184;60382;-63
2021/10/19 04:26:37;;;;;;;22.40;14.00;;;;;;;3.51;82.69;98543.45;116093;1184;60700;-64
2021/10/19 04:29:07;;;;;;;23.50;16.10;;;;;;;3.48;82.24;98547.33;115827;1184;72227;-65
2021/10/19 04:31:37;;;;;;;14.80;9.10;;;;;;;3.45;82.19;98550.33;116096;1183;66638;-65
2021/10/19 04:34:07;;;;;;;25.10;17.00;;;;;;;3.43;81.65;98555.05;116070;1184;68301;-62
2021/10/19 04:36:37;;;;;;;14.80;10.10;;;;;;;3.40;81.76;98551.48;116147;1183;60355;-63
2021/10/19 04:39:06;;;;;;;25.00;14.30;;;;;;;3.38;80.69;98552.05;116130;1183;60350;-62
2021/10/19 04:41:43;;;;;;;26.80;17.90;;;;;;;3.36;82.38;98554.02;116119;1182;72315;-65
2021/10/19 04:44:13;;;;;;;28.10;17.50;;;;;;;3.33;82.92;98556.67;115983;1182;68858;-64
2021/10/19 04:46:44;;;;;;;20.80;13.40;;;;;;;3.32;81.88;98554.45;115898;1184;68538;-62
2021/10/19 04:49:14;;;;;;;25.60;17.30;;;;;;;3.31;81.77;98552.23;115992;1183;60367;-62
2021/10/19 04:51:44;;;;;;;22.40;15.90;;;;;;;3.30;82.88;98554.33;116031;1184;60362;-65
2021/10/19 04:54:13;;;;;;;21.00;13.60;;;;;;;3.30;81.69;98557.77;116101;1183;72005;-64
2021/10/19 04:56:43;;;;;;;18.90;12.50;;;;;;;3.29;81.74;98557.63;116081;1183;67570;-66
2021/10/19 04:59:13;;;;;;;21.80;15.30;;;;;;;3.29;81.64;98563.31;116027;1184;68327;-66
2021/10/19 05:01:42;;;;;;;20.50;13.20;;;;;;;3.28;81.94;98566.10;116044;1183;60360;-64
2021/10/19 05:04:15;;;;;;;30.40;22.70;;;;;;;3.28;81.26;98568.85;116146;1183;60258;-64
2021/10/19 05:06:45;;;;;;;26.00;16.40;;;;;;;3.28;81.79;98567.30;116027;1184;72895;-65
2021/10/19 05:09:14;;;;;;;22.80;16.50;;;;;;;3.29;81.80;98564.88;116067;1184;68363;-65
2021/10/19 05:11:45;;;;;;;32.30;22.60;;;;;;;3.31;81.84;98571.52;116066;1185;68462;-64
2021/10/19 05:14:15;;;;;;;20.30;14.70;;;;;;;3.33;82.21;98569.27;116024;1182;60763;-66
2021/10/19 05:16:46;;;;;;;18.80;11.20;;;;;;;3.36;81.55;98569.69;115985;1184;60363;-63
2021/10/19 05:19:15;;;;;;;10.40;6.90;;;;;;;3.41;81.40;98571.98;115973;1182;72214;-61
2021/10/19 05:21:45;;;;;;;30.10;19.50;;;;;;;3.47;81.80;98573.73;116083;1183;68559;-62
2021/10/19 05:24:14;;;;;;;35.70;23.10;;;;;;;3.52;82.30;98577.73;116115;1180;68764;-64
2021/10/19 05:26:46;;;;;;;38.10;24.20;;;;;;;3.56;82.64;98578.66;116171;1184;60743;-62
2021/10/19 05:29:16;;;;;;;37.30;25.40;;;;;;;3.54;82.99;98578.55;116161;1183;60345;-63
2021/10/19 05:31:45;;;;;;;43.00;26.00;;;;;;;3.47;82.89;98578.87;116149;1183;72421;-64
2021/10/19 05:34:16;;;;;;;33.40;23.50;;;;;;;3.45;83.26;98577.37;116158;1183;67503;-62
2021/10/19 05:36:45;;;;;;;28.40;18.60;;;;;;;3.51;82.98;98577.56;116117;1183;68566;-64
2021/10/19 05:39:15;;;;;;;25.40;17.40;;;;;;;3.62;82.30;98576.59;116195;1182;60429;-65
2021/10/19 05:41:44;;;;;;;21.30;15.20;;;;;;;3.76;81.78;98577.25;116203;1183;60420;-63
2021/10/19 05:44:14;;;;;;;29.80;20.30;;;;;;;3.90;81.93;98581.38;116003;1184;72167;-62
2021/10/19 05:46:43;;;;;;;35.40;23.80;;;;;;;4.00;82.14;98587.13;116137;1183;68713;-65
2021/10/19 05:49:12;;;;;;;33.60;21.60;;;;;;;4.10;82.05;98589.80;116107;1181;69350;-64
2021/10/19 05:51:43;;;;;;;26.00;16.20;;;;;;;4.23;81.80;98592.52;116240;1182;60357;-64
2021/10/19 05:54:13;;;;;;;20.00;13.30;;;;;;;4.40;81.25;98592.02;116164;1184;60426;-63
2021/10/19 05:56:44;;;;;;;26.50;18.00;;;;;;;4.59;80.94;98590.61;116167;1184;72156;-63
2021/10/19 05:59:13;;;;;;;25.30;19.50;;;;;;;4.76;81.10;98595.44;116131;1183;68494;-66
2021/10/19 06:01:43;;;;;;;39.50;27.70;;;;;;;4.88;80.44;98601.28;116171;1174;69742;-64
2021/10/19 06:04:12;;;;;;;40.20;25.30;;;;;;;5.04;79.99;98605.97;116080;1184;60328;-64
2021/10/19 06:06:52;;;;;;;31.50;20.80;;;;;;;5.29;79.85;98607.44;116209;1182;60743;-63
2021/10/19 06:09:21;;;;;;;31.20;21.50;;;;;;;5.78;78.87;98601.81;116215;1184;72882;-65
2021/10/19 06:11:53;;;;;;;41.40;27.10;;;;;;;6.35;77.91;98600.83;116023;1184;68374;-65
2021/10/19 06:14:24;;;;;;;35.50;25.80;;;;;;;6.95;75.82;98604.45;116113;1184;69091;-62
2021/10/19 06:16:53;;;;;;;33.90;25.80;;;;;;;7.43;72.87;98601.84;116054;1183;60359;-65
2021/10/19 06:19:22;;;;;;;36.40;24.40;;;;;;;7.69;73.63;98599.54;116215;1182;60358;-63
2021/10/19 06:21:53;;;;;;;44.70;30.80;;;;;;;7.82;72.80;98607.31;116229;1183;72182;-64
2021/10/19 06:24:24;;;;;;;30.00;21.10;;;;;;;7.93;70.52;98608.92;116191;1184;68397;-62
2021/10/19 06:26:54;;;;;;;57.10;38.80;;;;;;;8.14;69.96;98614.45;116181;1183;68388;-64
2021/10/19 06:29:24;;;;;;;61.10;39.70;;;;;;;8.29;69.00;98617.76;116205;1182;60329;-64
2021/10/19 06:31:53;;;;;;;55.40;36.00;;;;;;;8.34;68.15;98620.50;116200;1184;60364;-64
2021/10/19 06:34:23;;;;;;;29.90;21.60;;;;;;;8.44;68.55;98624.61;116216;1184;72281;-63
2021/10/19 06:36:52;;;;;;;35.00;25.00;;;;;;;8.71;68.82;98629.09;116109;1184;68377;-62
2021/10/19 06:39:22;;;;;;;23.90;16.90;;;;;;;9.07;69.52;98630.56;116269;1182;69248;-65
2021/10/19 06:41:51;;;;;;;19.60;13.90;;;;;;;9.58;70.32;98633.33;116191;1183;60335;-63
2021/10/19 06:44:20;;;;;;;24.20;18.90;;;;;;;10.15;69.52;98630.27;116030;1184;60414;-63
2021/10/19 06:47:10;;;;;;;25.60;18.80;;;;;;;10.68;62.93;98633.25;116193;1184;72156;-66
2021/10/19 06:49:39;;;;;;;22.90;17.40;;;;;;;11.15;63.10;98636.80;116079;1183;68042;-65
2021/10/19 06:52:08;;;;;;;28.70;22.60;;;;;;;11.74;64.22;98639.34;116226;1184;69310;-65
2021/10/19 06:54:37;;;;;;;27.00;22.20;;;;;;;12.28;58.01;98634.80;116202;1183;60319;-65
2021/10/19 06:57:07;;;;;;;22.20;17.50;;;;;;;12.67;57.87;98638.54;116235;1183;60319;-64
2021/10/19 06:59:36;;;;;;;19.40;16.30;;;;;;;13.06;57.34;98641.33;116226;1182;72320;-65
2021/10/19 07:02:05;;;;;;;21.30;17.40;;;;;;;13.43;58.63;98641.78;116259;1183;67728;-69
2021/10/19 07:04:37;;;;;;;27.80;22.90;;;;;;;13.71;56.18;98634.02;116300;1182;68440;-65
2021/10/19 07:07:06;;;;;;;20.80;16.40;;;;;;;13.75;54.49;98635.32;116162;1183;60768;-67
2021/10/19 07:09:36;;;;;;;;;;;;;;;13.96;55.04;98641.81;115984;1184;60314;-64
2021/10/19 07:12:05;;;;;;;22.30;18.00;;;;;;;14.21;53.53;98641.29;116260;1183;71838;-65
2021/10/19 07:14:35;;;;;;;30.40;24.20;;;;;;;14.22;51.21;98643.52;116071;1176;69020;-63
2021/10/19 07:17:04;;;;;;;32.80;23.90;;;;;;;13.48;50.46;98648.29;116212;1184;69244;-63
2021/10/19 07:19:36;;;;;;;22.60;17.80;;;;;;;13.13;52.29;98651.58;115878;1184;60422;-66
2021/10/19 07:22:07;;;;;;;25.50;18.30;;;;;;;13.68;52.74;98651.33;116252;1184;60347;-66
2021/10/19 07:24:36;;;;;;;;;;;;;;;13.69;50.45;98646.05;116325;1182;72926;-64
2021/10/19 07:27:05;;;;;;;24.30;18.40;;;;;;;13.83;50.68;98643.86;116325;1183;68898;-67
2021/10/19 07:29:34;;;;;;;18.80;15.60;;;;;;;14.42;51.62;98642.38;116138;1182;69858;-63
2021/10/19 07:32:05;;;;;;;19.10;16.20;;;;;;;15.18;50.38;98646.10;116281;1184;60293;-64
2021/10/19 07:34:34;;;;;;;19.90;17.80;;;;;;;15.93;49.19;98647.30;116033;1184;60347;-62
2021/10/19 07:37:03;;;;;;;19.10;16.20;;;;;;;16.36;45.05;98642.11;116247;1184;72284;-64
2021/10/19 07:39:33;;;;;;;25.80;19.80;;;;;;;16.48;43.68;98638.00;115941;1184;68346;-63
2021/10/19 07:42:03;;;;;;;16.70;14.50;;;;;;;16.59;43.61;98637.87;116186;1183;69374;-62
2021/10/19 07:44:32;;;;;;;16.40;13.70;;;;;;;17.27;45.47;98645.54;116248;1183;60317;-64
2021/10/19 07:47:02;;;;;;;17.80;15.10;;;;;;;17.86;43.68;98641.61;116215;1182;60319;-65
2021/10/19 07:49:31;;;;;;;22.50;18.70;;;;;;;18.13;41.47;98642.86;116246;1183;71764;-68
2021/10/19 07:52:00;;;;;;;14.80;12.80;;;;;;;18.51;42.00;98641.86;116184;1183;68874;-69
2021/10/19 07:54:30;;;;;;;17.90;14.90;;;;;;;18.93;40.26;98646.98;116214;1176;70032;-63
2021/10/19 07:56:59;;;;;;;19.30;17.20;;;;;;;19.30;40.22;98650.23;116177;1183;60294;-63
2021/10/19 07:59:28;;;;;;;18.50;14.60;;;;;;;18.01;39.03;98654.58;116201;1180;60303;-62
2021/10/19 08:01:57;;;;;;;20.80;18.70;;;;;;;17.74;40.06;98656.54;116273;1183;72758;-63
2021/10/19 08:04:27;;;;;;;18.40;15.80;;;;;;;17.83;40.65;98651.52;116302;1182;68816;-64
2021/10/19 08:06:57;;;;;;;18.00;15.70;;;;;;;18.32;40.19;98652.90;116017;1184;68595;-63
2021/10/19 08:09:26;;;;;;;19.90;16.70;;;;;;;17.97;39.29;98651.61;116303;1182;60348;-63
2021/10/19 08:11:55;;;;;;;15.90;13.40;;;;;;;18.41;40.31;98646.30;116354;1182;60362;-65
2021/10/19 08:14:24;;;;;;;25.70;22.60;;;;;;;18.66;38.91;98645.91;116248;1183;71227;-63
2021/10/19 08:16:54;;;;;;;26.30;21.00;;;;;;;17.70;40.28;98648.20;116247;1182;67660;-68
2021/10/19 08:19:24;;;;;;;23.60;18.30;;;;;;;18.34;40.59;98644.76;116175;1184;69306;-64
2021/10/19 08:21:53;;;;;;;21.90;19.10;;;;;;;18.57;39.18;98640.69;116204;1182;60847;-64
2021/10/19 08:24:22;;;;;;;20.70;16.90;;;;;;;18.47;39.04;98637.69;116100;1181;60332;-67
2021/10/19 08:26:51;;;;;;;26.20;23.50;;;;;;;18.95;38.47;98645.91;116294;1182;71605;-64
2021/10/19 08:29:20;;;;;;;20.90;17.90;;;;;;;18.78;38.05;98647.17;116298;1184;68426;-66
2021/10/19 08:31:49;;;;;;;23.20;19.10;;;;;;;18.79;37.94;98650.31;116194;1183;69963;-64
2021/10/19 08:34:19;;;;;;;27.30;24.30;;;;;;;18.26;38.13;98649.16;116244;1182;60396;-69
2021/10/19 08:36:48;;;;;;;31.70;24.60;;;;;;;17.36;39.66;98654.82;116252;1183;60360;-65
2021/10/19 08:39:18;;;;;;;20.00;17.20;;;;;;;17.55;40.64;98651.69;116304;1184;72371;-64
2021/10/19 08:41:47;;;;;;;32.10;25.00;;;;;;;18.15;39.70;98650.24;116307;1184;69731;-64
2021/10/19 08:44:16;;;;;;;25.00;19.50;;;;;;;17.15;40.17;98654.42;116097;1184;70046;-66
2021/10/19 08:46:46;;;;;;;29.30;23.40;;;;;;;17.64;40.09;98652.60;116308;1184;60377;-66
2021/10/19 08:49:15;;;;;;;29.60;24.30;;;;;;;16.90;41.12;98655.19;116127;1184;60380;-69
2021/10/19 08:51:44;;;;;;;27.30;23.10;;;;;;;17.41;40.57;98655.10;115963;1187;72659;-65
2021/10/19 08:54:14;;;;;;;29.10;23.00;;;;;;;17.66;40.03;98650.43;116110;1184;68450;-65
2021/10/19 08:56:43;;;;;;;20.20;17.40;;;;;;;18.17;39.49;98643.75;116211;1183;69693;-65
2021/10/19 08:59:12;;;;;;;25.60;21.60;;;;;;;18.97;38.07;98642.67;116241;1183;60339;-63
2021/10/19 09:01:41;;;;;;;22.50;18.70;;;;;;;18.77;36.61;98641.25;116340;1181;60372;-67
2021/10/19 09:04:12;;;;;;;22.80;19.40;;;;;;;18.62;37.13;98641.88;116282;1184;71968;-67
2021/10/19 09:06:42;;;;;;;22.90;19.20;;;;;;;17.72;38.31;98645.52;116239;1182;68439;-67
2021/10/19 09:09:16;;;;;;;19.50;15.70;;;;;;;17.53;38.48;98652.23;116223;1184;69133;-65
2021/10/19 09:11:49;;;;;;;17.70;15.80;;;;;;;17.50;38.43;98657.54;116210;1184;60805;-64
2021/10/19 09:14:20;;;;;;;17.90;13.90;;;;;;;18.26;38.29;98654.79;116319;1184;60330;-66
2021/10/19 09:16:51;;;;;;;20.30;15.40;;;;;;;19.10;36.44;98653.16;116207;1183;72991;-66
2021/10/19 09:19:21;;;;;;;19.60;15.60;;;;;;;19.91;35.09;98651.30;116266;1182;68491;-64
2021/10/19 09:21:54;;;;;;;16.90;13.40;;;;;;;20.81;33.62;98644.85;116128;1183;68661;-65
2021/10/19 09:24:28;;;;;;;17.80;12.60;;;;;;;21.64;32.66;98650.95;116229;1182;60324;-66
2021/10/19 09:27:09;;;;;;;11.80;9.20;;;;;;;22.09;31.83;98654.13;116248;1183;60415;-64
2021/10/19 09:29:49;;;;;;;11.40;9.60;;;;;;;22.83;30.02;98648.16;116305;1183;71546;-65
2021/10/19 09:32:19;;;;;;;15.00;11.00;;;;;;;23.52;29.65;98652.27;116251;1183;68098;-67
2021/10/19 09:34:48;;;;;;;;;;;;;;;24.15;28.60;98656.31;116264;1183;68508;-68
2021/10/19 09:37:20;;;;;;;11.40;9.70;;;;;;;24.89;27.58;98651.63;116117;1183;60362;-67
2021/10/19 09:39:51;;;;;;;10.80;8.90;;;;;;;25.42;26.71;98660.58;116059;1184;60370;-66
2021/10/19 09:42:26;;;;;;;12.00;9.60;;;;;;;26.00;25.60;98664.58;116268;1183;71614;-69
2021/10/19 09:45:00;;;;;;;15.40;12.40;;;;;;;26.25;23.36;98658.34;116301;1183;66706;-67
2021/10/19 09:47:39;;;;;;;12.10;10.00;;;;;;;26.34;24.19;98660.04;116031;1184;68442;-68
2021/10/19 09:50:10;;;;;;;10.70;9.50;;;;;;;26.57;23.43;98654.97;116302;1184;60384;-63
2021/10/19 09:52:39;;;;;;;11.00;9.90;;;;;;;26.99;24.05;98651.89;116198;1183;60339;-70
2021/10/19 09:55:10;;;;;;;15.20;13.60;;;;;;;27.50;23.88;98650.11;116080;1184;72244;-67
2021/10/19 09:57:43;;;;;;;11.10;9.20;;;;;;;27.10;21.98;98643.38;116248;1183;67781;-64
2021/10/19 10:00:15;;;;;;;9.20;8.30;;;;;;;27.65;22.46;98640.56;116192;1183;69864;-66
2021/10/19 10:02:45;;;;;;;12.30;10.10;;;;;;;28.05;22.26;98637.73;116197;1183;60377;-67
2021/10/19 10:05:16;;;;;;;13.60;12.10;;;;;;;28.71;22.07;98633.99;116071;1174;60359;-65
2021/10/19 10:07:49;;;;;;;11.50;10.40;;;;;;;29.20;21.57;98635.30;116028;1184;72231;-64
2021/10/19 10:10:18;;;;;;;10.80;9.30;;;;;;;29.54;21.08;98634.84;116240;1182;67127;-67
2021/10/19 10:12:59;;;;;;;10.10;9.10;;;;;;;28.98;20.48;98628.31;116029;1184;68452;-69
2021/10/19 10:15:34;;;;;;;12.00;10.40;;;;;;;28.03;22.18;98627.39;116193;1182;60348;-68
2021/10/19 10:18:05;;;;;;;16.10;14.40;;;;;;;27.04;23.50;98622.62;116056;1184;60319;-68
2021/10/19 10:20:42;;;;;;;10.90;9.00;;;;;;;26.84;24.01;98619.55;116216;1184;72780;-64
2021/10/19 10:23:20;;;;;;;11.30;9.90;;;;;;;27.29;22.94;98622.95;116297;1183;69181;-64
2021/10/19 10:25:55;;;;;;;14.30;12.80;;;;;;;27.79;22.66;98627.91;116322;1184;69437;-68
2021/10/19 10:28:32;;;;;;;9.50;8.50;;;;;;;27.49;22.86;98623.66;116242;1183;60345;-66
2021/10/19 10:31:07;;;;;;;12.00;10.70;;;;;;;27.99;22.84;98618.55;116143;1183;60376;-66
2021/10/19 10:33:41;;;;;;;11.30;9.50;;;;;;;28.25;22.24;98616.36;116223;1184;73021;-63
2021/10/19 10:36:12;;;;;;;10.20;8.80;;;;;;;28.36;21.71;98615.65;116210;1182;68874;-67
2021/10/19 10:38:56;;;;;;;10.10;9.10;;;;;;;28.75;22.34;98615.08;116239;1184;69050;-65
2021/10/19 10:41:40;;;;;;;12.10;10.40;;;;;;;28.99;20.55;98615.66;116197;1184;60368;-65
2021/10/19 10:44:10;;;;;;;10.30;9.00;;;;;;;28.54;20.90;98609.34;116070;1184;60377;-67
2021/10/19 10:46:40;;;;;;;7.90;6.70;;;;;;;28.03;21.02;98605.43;116098;1184;72125;-65
2021/10/19 10:49:12;;;;;;;7.20;5.80;;;;;;;27.85;21.52;98603.00;116209;1183;68662;-68
2021/10/19 10:51:43;;;;;;;10.10;8.10;;;;;;;28.12;21.59;98597.41;116199;1183;69135;-64
2021/10/19 10:54:15;;;;;;;7.00;5.50;;;;;;;28.44;21.22;98593.96;116242;1181;60314;-65
2021/10/19 10:56:51;;;;;;;7.60;6.60;;;;;;;28.56;20.68;98592.51;116251;1183;60338;-65
2021/10/19 10:59:24;;;;;;;12.40;9.90;;;;;;;28.42;20.70;98585.36;116180;1176;72252;-67
2021/10/19 11:02:06;;;;;;;10.60;8.70;;;;;;;27.92;20.88;98582.90;116247;1182;67507;-68
2021/10/19 11:04:47;;;;;;;6.00;5.30;;;;;;;27.88;21.10;98578.64;115994;1184;69848;-66
2021/10/19 11:07:28;;;;;;;10.90;8.70;;;;;;;27.59;20.76;98577.56;116096;1183;60376;-68
2021/10/19 11:10:07;;;;;;;9.30;8.10;;;;;;;25.30;22.46;98573.38;116215;1183;60327;-67
2021/10/19 11:12:37;;;;;;;7.90;7.00;;;;;;;24.93;23.10;98569.80;116245;1184;72780;-67
2021/10/19 11:15:15;;;;;;;6.40;5.30;;;;;;;24.99;23.78;98570.71;116012;1184;68214;-66
2021/10/19 11:17:53;;;;;;;7.40;5.60;;;;;;;25.71;23.16;98568.27;116256;1184;69244;-66
2021/10/19 11:20:25;;;;;;;8.80;7.60;;;;;;;26.33;21.97;98569.91;116179;1183;60822;-67
2021/10/19 11:22:54;;;;;;;8.40;7.50;;;;;;;25.02;22.22;98568.50;116342;1179;60374;-66
2021/10/19 11:25:23;;;;;;;6.40;5.00;;;;;;;24.12;23.77;98567.58;116353;1184;72794;-67
2021/10/19 11:27:53;;;;;;;7.70;5.50;;;;;;;25.57;23.69;98568.30;116082;1182;67838;-64
2021/10/19 11:30:23;;;;;;;6.80;5.30;;;;;;;26.32;22.53;98565.54;116206;1184;69633;-65
2021/10/19 11:32:52;;;;;;;6.50;5.20;;;;;;;27.05;22.17;98570.27;115984;1184;60342;-66
2021/10/19 11:35:24;;;;;;;7.70;6.50;;;;;;;27.52;21.53;98568.02;116221;1183;60327;-64